Time;durP1;ratioP1;P1;durP2;ratioP2;P2;SDS_P1;SDS_P2;PMS_P1;PMS_P2;Temp;Humidity;BMP_temperature;BMP_pressure;BME280_temperature;BME280_humidity;BME280_pressure;Samples;Min_cycle;Max_cycle;Signal;HPM_P1;HPM_P2
2022/09/15 00:01:35;;;;;;;4.65;1.27;;;21.80;69.20;;;;;;5071106;28;20174;-67
2022/09/15 00:04:04;;;;;;;3.67;1.10;;;21.80;69.10;;;;;;5071775;28;20127;-67
2022/09/15 00:06:30;;;;;;;2.50;1.00;;;21.80;69.10;;;;;;5071708;28;20045;-67
2022/09/15 00:08:57;;;;;;;3.78;1.10;;;21.80;69.10;;;;;;5053183;28;20059;-67
2022/09/15 00:11:24;;;;;;;3.78;1.40;;;21.80;69.10;;;;;;5070945;28;20415;-67
2022/09/15 00:13:50;;;;;;;4.40;1.10;;;21.80;69.10;;;;;;5075680;28;20044;-67
2022/09/15 00:16:16;;;;;;;3.03;1.10;;;21.80;69.10;;;;;;5074805;28;20032;-67
2022/09/15 00:18:42;;;;;;;4.63;1.35;;;21.70;69.00;;;;;;5057184;28;20053;-67
2022/09/15 00:21:10;;;;;;;3.10;1.15;;;21.70;69.00;;;;;;5075626;28;20036;-67
2022/09/15 00:23:36;;;;;;;3.13;1.10;;;21.70;69.00;;;;;;5075017;28;20091;-67
2022/09/15 00:26:05;;;;;;;4.07;1.40;;;21.70;69.00;;;;;;5075187;28;20072;-67
2022/09/15 00:28:31;;;;;;;3.22;0.88;;;21.70;69.00;;;;;;5075777;28;20128;-67
2022/09/15 00:30:56;;;;;;;3.38;1.63;;;21.70;69.00;;;;;;5074676;28;20128;-67
2022/09/15 00:33:22;;;;;;;5.82;1.13;;;21.70;69.00;;;;;;5053707;28;20068;-67
2022/09/15 00:35:50;;;;;;;4.25;1.33;;;21.70;69.00;;;;;;5055449;28;20044;-68
2022/09/15 00:38:16;;;;;;;4.05;1.10;;;21.70;69.00;;;;;;5054313;28;20037;-67
2022/09/15 00:40:58;;;;;;;2.28;0.80;;;21.70;69.00;;;;;;5054849;28;20546;-68
2022/09/15 00:44:03;;;;;;;4.13;1.00;;;21.70;69.00;;;;;;5054363;28;20076;-67
2022/09/15 00:46:32;;;;;;;2.63;1.05;;;21.70;68.90;;;;;;5054776;28;20150;-68
2022/09/15 00:49:10;;;;;;;3.13;1.05;;;21.70;69.00;;;;;;5054961;28;20481;-68
2022/09/15 00:51:58;;;;;;;3.47;1.00;;;21.70;68.90;;;;;;5054557;28;20048;-67
2022/09/15 00:54:42;;;;;;;2.78;0.88;;;21.70;68.90;;;;;;5036942;28;20135;-67
2022/09/15 00:57:36;;;;;;;2.20;1.02;;;21.70;68.90;;;;;;5036171;28;20109;-68
2022/09/15 01:00:05;;;;;;;1.90;0.80;;;21.70;69.40;;;;;;5035109;28;20053;-68
2022/09/15 01:02:32;;;;;;;3.40;1.00;;;21.70;68.90;;;;;;5054260;28;20063;-67
2022/09/15 01:04:57;;;;;;;3.33;1.13;;;21.70;68.90;;;;;;5036491;28;20045;-68
2022/09/15 01:07:33;;;;;;;4.03;1.00;;;21.70;68.90;;;;;;5037010;28;20492;-68
2022/09/15 01:10:04;;;;;;;2.47;0.90;;;21.70;68.80;;;;;;5054780;28;20124;-68
2022/09/15 01:12:29;;;;;;;2.60;0.90;;;21.60;68.80;;;;;;5036825;28;20047;-68
2022/09/15 01:14:55;;;;;;;2.53;0.90;;;21.60;68.80;;;;;;5036981;28;20040;-68
2022/09/15 01:17:45;;;;;;;3.38;1.00;;;21.60;68.80;;;;;;5054168;28;20048;-67
2022/09/15 01:20:46;;;;;;;3.88;1.17;;;21.60;68.80;;;;;;5053553;28;20094;-68
2022/09/15 01:23:14;;;;;;;2.65;0.70;;;21.60;68.80;;;;;;5036513;28;20033;-68
2022/09/15 01:26:27;;;;;;;3.10;0.93;;;21.60;68.80;;;;;;5053175;28;20534;-67
2022/09/15 01:29:14;;;;;;;3.45;1.25;;;21.60;68.70;;;;;;4992756;28;20092;-68
2022/09/15 01:34:32;;;;;;;2.25;0.80;;;21.60;68.70;;;;;;5039024;28;20064;-68
2022/09/15 01:37:04;;;;;;;2.80;0.95;;;21.60;68.70;;;;;;5036372;28;20386;-68
2022/09/15 01:39:33;;;;;;;2.15;0.80;;;21.60;68.70;;;;;;5035979;28;20045;-68
2022/09/15 01:42:04;;;;;;;2.83;1.10;;;21.60;68.70;;;;;;5035813;28;20056;-67
2022/09/15 01:44:48;;;;;;;3.28;0.93;;;21.60;68.70;;;;;;5035784;28;20116;-67
2022/09/15 01:47:15;;;;;;;1.55;0.70;;;21.60;68.70;;;;;;5018412;28;20481;-67
2022/09/15 01:49:46;;;;;;;2.50;0.82;;;21.60;68.60;;;;;;5019496;28;20051;-67
2022/09/15 01:52:14;;;;;;;2.28;0.75;;;21.60;68.60;;;;;;5035778;28;20055;-67
2022/09/15 01:54:41;;;;;;;;;;;21.60;68.60;;;;;;5035748;28;20053;-68
2022/09/15 01:57:06;;;;;;;2.75;0.90;;;21.50;68.40;;;;;;5053224;28;19921;-67
2022/09/15 01:59:33;;;;;;;2.35;0.82;;;21.50;68.60;;;;;;5061193;28;20437;-68
2022/09/15 02:02:10;;;;;;;2.70;0.90;;;21.50;68.60;;;;;;5056207;28;20041;-68
2022/09/15 02:04:40;;;;;;;2.80;0.70;;;21.60;68.60;;;;;;5036624;28;20076;-68
2022/09/15 02:07:19;;;;;;;2.55;0.70;;;21.50;68.50;;;;;;5035993;28;20045;-67
2022/09/15 02:09:58;;;;;;;2.75;0.70;;;21.50;68.40;;;;;;5052855;28;20427;-68
2022/09/15 02:12:32;;;;;;;1.67;0.80;;;21.50;68.50;;;;;;5035284;28;20040;-68
2022/09/15 02:15:02;;;;;;;2.10;0.70;;;21.60;68.50;;;;;;5035933;28;20080;-68
2022/09/15 02:17:29;;;;;;;2.72;0.75;;;21.50;68.40;;;;;;5035713;28;20054;-68
2022/09/15 02:20:14;;;;;;;2.28;0.80;;;21.50;68.40;;;;;;5035711;28;20048;-68
2022/09/15 02:22:44;;;;;;;;;;;21.50;68.40;;;;;;5038455;28;20084;-68
2022/09/15 02:25:19;;;;;;;1.10;0.63;;;21.50;68.40;;;;;;5034957;28;19982;-68
2022/09/15 02:27:52;;;;;;;2.40;0.60;;;21.50;69.00;;;;;;5035816;28;20041;-68
2022/09/15 02:30:18;;;;;;;2.55;0.95;;;21.50;68.40;;;;;;5034559;28;20053;-68
2022/09/15 02:32:59;;;;;;;1.65;0.80;;;21.50;68.40;;;;;;5035723;28;20099;-68
2022/09/15 02:35:27;;;;;;;2.45;0.65;;;21.50;68.40;;;;;;5034629;28;20072;-68
2022/09/15 02:37:52;;;;;;;2.47;0.80;;;21.50;68.40;;;;;;5035359;28;20129;-68
2022/09/15 02:40:18;;;;;;;2.58;0.98;;;21.50;68.50;;;;;;5018027;28;20124;-68
2022/09/15 02:42:54;;;;;;;2.72;0.70;;;21.50;68.40;;;;;;5018116;28;20123;-68
2022/09/15 02:45:25;;;;;;;1.23;0.60;;;21.50;68.40;;;;;;5052890;28;20094;-68
2022/09/15 02:47:51;;;;;;;1.55;0.80;;;21.40;68.40;;;;;;5053048;28;20123;-68
2022/09/15 02:50:17;;;;;;;2.35;0.77;;;21.50;68.40;;;;;;5058388;28;20072;-68
2022/09/15 02:52:46;;;;;;;1.65;0.68;;;21.50;68.40;;;;;;5072896;28;20044;-68
2022/09/15 02:55:11;;;;;;;1.48;0.70;;;21.50;68.40;;;;;;5072298;28;20040;-68
2022/09/15 02:57:37;;;;;;;2.38;0.70;;;21.40;68.40;;;;;;5071919;28;20089;-69
2022/09/15 03:00:13;;;;;;;1.30;0.63;;;21.40;68.40;;;;;;5072708;28;20377;-68
2022/09/15 03:02:39;;;;;;;1.42;0.57;;;21.40;68.40;;;;;;5072847;28;20059;-68
2022/09/15 03:05:06;;;;;;;1.75;0.60;;;21.40;68.40;;;;;;5072002;28;20036;-68
2022/09/15 03:07:31;;;;;;;1.92;0.82;;;21.40;68.40;;;;;;5038598;28;20074;-68
2022/09/15 03:09:57;;;;;;;1.67;0.60;;;21.40;68.40;;;;;;5054636;28;20404;-68
2022/09/15 03:12:23;;;;;;;1.45;0.60;;;21.40;68.40;;;;;;5052932;28;20044;-68
2022/09/15 03:14:49;;;;;;;1.05;0.60;;;21.40;68.40;;;;;;5072416;28;20055;-66
2022/09/15 03:17:18;;;;;;;1.90;0.75;;;21.40;68.40;;;;;;5072145;28;20040;-66
2022/09/15 03:19:44;;;;;;;1.90;0.60;;;21.50;68.40;;;;;;5071750;28;20127;-66
2022/09/15 03:22:09;;;;;;;2.30;0.60;;;21.40;68.40;;;;;;5072021;28;20040;-68
2022/09/15 03:24:36;;;;;;;3.08;0.80;;;21.40;68.40;;;;;;5072080;28;20051;-66
2022/09/15 03:27:02;;;;;;;1.40;0.52;;;21.40;68.40;;;;;;5071333;28;20029;-68
2022/09/15 03:29:27;;;;;;;1.50;0.60;;;21.40;68.40;;;;;;5071917;28;20051;-67
2022/09/15 03:31:53;;;;;;;1.40;0.60;;;21.40;68.40;;;;;;5071282;28;20052;-67
2022/09/15 03:34:18;;;;;;;0.77;0.50;;;21.40;68.40;;;;;;5053764;28;20045;-68
2022/09/15 03:36:44;;;;;;;3.55;1.17;;;21.40;68.40;;;;;;5072353;28;20041;-67
2022/09/15 03:39:10;;;;;;;2.05;0.70;;;21.40;68.40;;;;;;5071261;28;20178;-68
2022/09/15 03:41:36;;;;;;;1.80;0.60;;;21.40;68.40;;;;;;5071551;28;20519;-68
2022/09/15 03:44:01;;;;;;;2.03;0.60;;;21.40;68.40;;;;;;5072312;28;20127;-68
2022/09/15 03:46:28;;;;;;;1.52;0.70;;;21.40;68.40;;;;;;5052641;28;20555;-68
2022/09/15 03:48:56;;;;;;;1.58;0.60;;;21.40;68.40;;;;;;5072133;28;20158;-68
2022/09/15 03:51:22;;;;;;;2.13;0.60;;;21.40;68.40;;;;;;5071953;28;20056;-68
2022/09/15 03:53:48;;;;;;;2.28;0.70;;;21.40;68.40;;;;;;5070938;28;20044;-67
2022/09/15 03:56:21;;;;;;;2.05;0.70;;;21.40;68.40;;;;;;5070863;28;20041;-67
2022/09/15 03:58:46;;;;;;;1.27;0.50;;;21.40;68.40;;;;;;5054771;28;20044;-67
2022/09/15 04:01:12;;;;;;;1.63;0.40;;;21.40;68.40;;;;;;5045968;28;20401;-67
2022/09/15 04:03:38;;;;;;;1.23;0.60;;;21.40;68.40;;;;;;5059191;28;20044;-67
2022/09/15 04:06:03;;;;;;;2.35;0.60;;;21.30;68.30;;;;;;5052802;28;20192;-67
2022/09/15 04:08:29;;;;;;;1.60;0.60;;;21.30;68.30;;;;;;5052556;28;20040;-68
2022/09/15 04:10:54;;;;;;;1.80;0.52;;;21.30;68.30;;;;;;5053573;28;20049;-67
2022/09/15 04:13:21;;;;;;;2.13;0.73;;;21.30;68.30;;;;;;5053484;28;20377;-67
2022/09/15 04:15:47;;;;;;;1.08;0.60;;;21.30;68.30;;;;;;5071201;28;20040;-67
2022/09/15 04:18:12;;;;;;;1.90;0.60;;;21.40;68.30;;;;;;5053528;28;20377;-67
2022/09/15 04:20:38;;;;;;;1.20;0.60;;;21.30;68.30;;;;;;5071729;28;20495;-67
2022/09/15 04:23:04;;;;;;;1.50;0.60;;;21.30;68.30;;;;;;5070304;28;20060;-67
2022/09/15 04:25:29;;;;;;;1.48;0.50;;;21.30;68.30;;;;;;5071023;28;20044;-67
2022/09/15 04:27:56;;;;;;;1.50;0.50;;;21.30;68.30;;;;;;5071486;28;20043;-67
2022/09/15 04:30:21;;;;;;;1.63;0.57;;;21.30;68.20;;;;;;5070331;28;20056;-67
2022/09/15 04:32:47;;;;;;;1.88;0.60;;;21.30;68.30;;;;;;5071486;28;20047;-67
2022/09/15 04:35:13;;;;;;;1.45;0.50;;;21.30;68.30;;;;;;5070807;28;20037;-67
2022/09/15 04:37:38;;;;;;;1.45;0.70;;;21.30;68.30;;;;;;5035493;28;20045;-68
2022/09/15 04:40:04;;;;;;;1.90;0.60;;;21.30;68.30;;;;;;5033347;28;20127;-68
2022/09/15 04:42:30;;;;;;;2.38;0.65;;;21.30;68.30;;;;;;5049741;28;20138;-67
2022/09/15 04:44:56;;;;;;;1.85;0.60;;;21.30;68.30;;;;;;5051590;28;20037;-68
2022/09/15 04:47:21;;;;;;;1.63;0.40;;;21.30;68.30;;;;;;5051040;28;20589;-68
2022/09/15 04:49:47;;;;;;;2.00;0.60;;;21.30;68.30;;;;;;5050468;28;20548;-68
2022/09/15 04:52:12;;;;;;;1.58;0.50;;;21.30;68.30;;;;;;5050928;28;20048;-68
2022/09/15 04:54:38;;;;;;;1.85;0.68;;;21.30;68.30;;;;;;5051438;28;20120;-67
2022/09/15 04:57:03;;;;;;;2.08;0.70;;;21.30;68.30;;;;;;5050290;28;20118;-68
2022/09/15 04:59:29;;;;;;;2.08;0.63;;;21.30;68.20;;;;;;5053893;28;20049;-67
2022/09/15 05:01:55;;;;;;;1.70;0.70;;;21.30;68.30;;;;;;5054745;28;20087;-68
2022/09/15 05:04:20;;;;;;;1.52;0.63;;;21.30;68.30;;;;;;5035915;28;20053;-67
2022/09/15 05:06:46;;;;;;;2.30;0.57;;;21.30;68.30;;;;;;5054938;28;20073;-68
2022/09/15 05:09:12;;;;;;;1.85;0.63;;;21.30;68.20;;;;;;5036804;28;20120;-68
2022/09/15 05:11:37;;;;;;;2.28;0.70;;;21.30;68.20;;;;;;5053919;28;20041;-68
2022/09/15 05:14:06;;;;;;;1.50;0.63;;;21.30;68.20;;;;;;5054585;28;20045;-67
2022/09/15 05:16:32;;;;;;;1.38;0.60;;;21.30;68.20;;;;;;5054883;28;20135;-68
2022/09/15 05:18:59;;;;;;;1.13;0.50;;;21.20;68.10;;;;;;5053292;28;20537;-67
2022/09/15 05:21:25;;;;;;;2.65;0.60;;;21.20;68.10;;;;;;5054266;28;20064;-68
2022/09/15 05:23:50;;;;;;;1.90;0.47;;;21.30;68.20;;;;;;5054605;28;20134;-68
2022/09/15 05:26:18;;;;;;;1.92;0.55;;;21.20;68.10;;;;;;5052964;28;20048;-68
2022/09/15 05:28:44;;;;;;;1.40;0.52;;;21.20;68.10;;;;;;5054697;28;20056;-67
2022/09/15 05:31:17;;;;;;;1.88;0.40;;;21.20;68.10;;;;;;5036126;28;20404;-68
2022/09/15 05:33:43;;;;;;;1.95;0.60;;;21.20;68.10;;;;;;5036545;28;20053;-67
2022/09/15 05:36:08;;;;;;;0.80;0.55;;;21.20;68.10;;;;;;5054179;28;20044;-67
2022/09/15 05:38:37;;;;;;;0.65;0.40;;;21.20;68.10;;;;;;5053666;28;20064;-68
2022/09/15 05:41:07;;;;;;;1.80;0.60;;;21.20;68.10;;;;;;5054084;28;20045;-68
2022/09/15 05:43:36;;;;;;;0.88;0.43;;;21.20;68.10;;;;;;5054458;28;20051;-67
2022/09/15 05:46:02;;;;;;;2.50;0.57;;;21.20;68.10;;;;;;5053739;28;20041;-68
2022/09/15 05:48:27;;;;;;;2.13;0.47;;;21.20;68.00;;;;;;5053904;28;20167;-67
2022/09/15 05:50:53;;;;;;;1.17;0.68;;;21.20;68.00;;;;;;5053955;28;20051;-67
2022/09/15 05:53:19;;;;;;;1.77;0.60;;;21.20;68.00;;;;;;5034951;28;20049;-67
2022/09/15 05:55:45;;;;;;;3.45;0.60;;;21.20;68.00;;;;;;5052802;28;20048;-68
2022/09/15 05:58:11;;;;;;;0.85;0.55;;;21.20;68.10;;;;;;5053811;28;20129;-69
2022/09/15 06:00:36;;;;;;;2.55;0.47;;;21.20;68.10;;;;;;5053313;28;20068;-67
2022/09/15 06:03:02;;;;;;;2.72;0.50;;;21.20;68.20;;;;;;5035886;28;20051;-68
2022/09/15 06:05:27;;;;;;;1.92;0.60;;;21.20;68.30;;;;;;5035796;28;20048;-68
2022/09/15 06:07:53;;;;;;;5.43;0.77;;;21.20;68.30;;;;;;5052994;28;20052;-69
2022/09/15 06:10:21;;;;;;;2.58;0.88;;;21.20;68.30;;;;;;5052175;28;20041;-69
2022/09/15 06:12:47;;;;;;;2.75;0.68;;;21.20;68.30;;;;;;5053927;28;20110;-69
2022/09/15 06:15:13;;;;;;;1.55;0.60;;;21.20;68.30;;;;;;5052762;28;20036;-69
2022/09/15 06:17:41;;;;;;;3.00;0.73;;;21.20;68.30;;;;;;5053597;28;20047;-69
2022/09/15 06:20:07;;;;;;;2.05;0.60;;;21.20;68.30;;;;;;5053373;28;20045;-68
2022/09/15 06:22:32;;;;;;;2.63;0.52;;;21.20;68.30;;;;;;5053135;28;20045;-70
2022/09/15 06:24:58;;;;;;;7.15;1.05;;;21.20;68.20;;;;;;5053593;28;20047;-69
2022/09/15 06:27:24;;;;;;;3.00;0.60;;;21.20;68.20;;;;;;5053375;28;20470;-69
2022/09/15 06:29:50;;;;;;;3.05;0.55;;;21.20;68.20;;;;;;5052903;28;20041;-67
2022/09/15 06:32:15;;;;;;;1.13;0.50;;;21.20;68.30;;;;;;5052544;28;20048;-67
2022/09/15 06:34:41;;;;;;;1.70;0.45;;;21.20;68.30;;;;;;5052793;28;20045;-67
2022/09/15 06:37:07;;;;;;;1.50;0.45;;;21.20;68.40;;;;;;5052743;28;20041;-71
2022/09/15 06:39:32;;;;;;;3.85;0.68;;;21.20;68.50;;;;;;5053396;28;20136;-70
2022/09/15 06:41:58;;;;;;;2.78;0.50;;;21.20;68.60;;;;;;5052381;28;20207;-71
2022/09/15 06:44:23;;;;;;;2.85;0.57;;;21.30;68.70;;;;;;5052819;28;20045;-71
2022/09/15 06:46:49;;;;;;;2.13;0.80;;;21.30;68.70;;;;;;5052706;28;20048;-71
2022/09/15 06:49:15;;;;;;;2.97;0.73;;;21.30;68.70;;;;;;5052262;28;20041;-70
2022/09/15 06:51:47;;;;;;;3.25;0.57;;;21.30;68.80;;;;;;5052887;28;20057;-70
2022/09/15 06:54:14;;;;;;;3.22;0.60;;;21.30;68.90;;;;;;5052786;28;20089;-68
2022/09/15 06:56:40;;;;;;;3.22;0.77;;;21.30;68.80;;;;;;5052179;28;20048;-71
2022/09/15 06:59:06;;;;;;;3.67;0.80;;;21.30;68.90;;;;;;5052833;28;20052;-70
2022/09/15 07:01:31;;;;;;;2.47;0.57;;;21.30;68.90;;;;;;5052816;28;20055;-70
2022/09/15 07:03:58;;;;;;;3.53;0.60;;;21.30;68.90;;;;;;5052113;28;20045;-69
2022/09/15 07:06:27;;;;;;;3.30;0.70;;;21.30;69.00;;;;;;5034915;28;20037;-70
2022/09/15 07:08:53;;;;;;;3.05;0.60;;;21.30;69.00;;;;;;5037731;28;20049;-70
2022/09/15 07:11:21;;;;;;;9.00;0.80;;;21.30;68.90;;;;;;5071271;28;20044;-69
2022/09/15 07:13:48;;;;;;;2.25;0.40;;;21.40;69.10;;;;;;5072363;28;20381;-69
2022/09/15 07:16:13;;;;;;;3.58;0.70;;;21.40;69.10;;;;;;5072109;28;20091;-69
2022/09/15 07:18:39;;;;;;;3.22;0.60;;;21.40;69.00;;;;;;5049236;28;20505;-69
2022/09/15 07:21:06;;;;;;;4.18;0.57;;;21.40;69.70;;;;;;5052166;28;20508;-66
2022/09/15 07:23:32;;;;;;;4.05;0.60;;;21.40;69.10;;;;;;5062621;28;20044;-69
2022/09/15 07:26:08;;;;;;;5.10;0.60;;;21.40;69.10;;;;;;5071468;28;20063;-70
2022/09/15 07:28:33;;;;;;;2.65;0.52;;;21.40;69.10;;;;;;5072229;28;20127;-69
2022/09/15 07:30:59;;;;;;;4.18;0.55;;;21.40;69.10;;;;;;5071301;28;20132;-68
2022/09/15 07:33:24;;;;;;;3.55;0.93;;;21.40;69.10;;;;;;5054002;28;20797;-69
2022/09/15 07:35:50;;;;;;;2.95;0.50;;;21.40;69.10;;;;;;5072622;28;20060;-69
2022/09/15 07:38:16;;;;;;;2.67;0.50;;;21.40;69.10;;;;;;5071382;28;20795;-67
2022/09/15 07:40:42;;;;;;;1.92;0.50;;;21.50;69.20;;;;;;5072536;28;20108;-67
2022/09/15 07:43:07;;;;;;;2.30;0.68;;;21.50;69.10;;;;;;5072115;28;20487;-67
2022/09/15 07:45:34;;;;;;;4.38;0.90;;;21.50;69.10;;;;;;5071502;28;20040;-67
2022/09/15 07:48:00;;;;;;;1.88;0.50;;;21.50;69.10;;;;;;5071802;28;20040;-67
2022/09/15 07:50:25;;;;;;;3.17;0.85;;;21.50;69.10;;;;;;5054228;28;20048;-66
2022/09/15 07:52:57;;;;;;;6.07;1.10;;;21.50;69.00;;;;;;5071557;28;20372;-67
2022/09/15 07:55:23;;;;;;;4.47;0.60;;;21.50;69.00;;;;;;5071973;28;20055;-67
2022/09/15 07:58:00;;;;;;;2.42;0.98;;;21.50;68.90;;;;;;5072385;28;20032;-67
2022/09/15 08:00:26;;;;;;;2.55;0.57;;;21.50;68.90;;;;;;5070521;28;20142;-67
2022/09/15 08:02:52;;;;;;;5.45;0.77;;;21.50;68.80;;;;;;5065777;28;20036;-67
2022/09/15 08:05:18;;;;;;;3.25;0.60;;;21.50;68.80;;;;;;5071688;28;20048;-67
2022/09/15 08:07:43;;;;;;;3.60;0.70;;;21.50;68.80;;;;;;5052970;28;20487;-67
2022/09/15 08:10:09;;;;;;;2.15;0.50;;;21.50;68.70;;;;;;5053639;28;20125;-65
2022/09/15 08:12:35;;;;;;;3.10;0.60;;;21.50;68.70;;;;;;5071601;28;20174;-69
2022/09/15 08:15:00;;;;;;;2.45;0.80;;;21.50;68.70;;;;;;5069728;28;20504;-69
2022/09/15 08:17:29;;;;;;;3.25;0.65;;;21.50;68.70;;;;;;5071307;28;20867;-68
2022/09/15 08:19:54;;;;;;;1.67;0.57;;;21.50;68.60;;;;;;5071749;28;20484;-69
2022/09/15 08:22:23;;;;;;;2.63;0.47;;;21.50;68.40;;;;;;5070779;28;20056;-68
2022/09/15 08:24:49;;;;;;;4.00;0.65;;;21.50;68.40;;;;;;5053831;28;20036;-69
2022/09/15 08:27:14;;;;;;;2.88;0.55;;;21.50;68.40;;;;;;5070422;28;20051;-68
2022/09/15 08:29:40;;;;;;;2.58;0.60;;;21.50;68.40;;;;;;5071502;28;20048;-68
2022/09/15 08:32:06;;;;;;;4.80;0.68;;;21.50;68.30;;;;;;5070160;28;20053;-68
2022/09/15 08:34:31;;;;;;;1.52;0.60;;;21.50;68.10;;;;;;5063281;28;20156;-66
2022/09/15 08:36:57;;;;;;;2.45;0.55;;;21.50;68.10;;;;;;5065608;28;20128;-67
2022/09/15 08:39:22;;;;;;;3.20;0.77;;;21.60;68.20;;;;;;5064433;28;20079;-66
2022/09/15 08:41:49;;;;;;;6.30;0.75;;;21.50;68.10;;;;;;5061335;28;20120;-67
2022/09/15 08:44:30;;;;;;;4.15;0.85;;;21.60;68.20;;;;;;5037202;28;20045;-66
2022/09/15 08:47:03;;;;;;;1.88;0.50;;;21.60;68.20;;;;;;5024946;28;20127;-68
2022/09/15 08:50:09;;;;;;;3.28;0.70;;;21.60;68.20;;;;;;5047656;28;20041;-64
2022/09/15 08:52:38;;;;;;;3.58;0.60;;;21.60;68.00;;;;;;5054386;28;20789;-70
2022/09/15 08:55:20;;;;;;;3.58;0.60;;;21.60;68.00;;;;;;5056851;28;20504;-70
2022/09/15 08:57:45;;;;;;;4.22;0.52;;;21.60;67.80;;;;;;5036156;28;20045;-69
2022/09/15 09:00:15;;;;;;;3.75;0.60;;;21.70;67.80;;;;;;5035681;28;20482;-69
2022/09/15 09:02:55;;;;;;;1.73;0.60;;;21.70;67.60;;;;;;5036458;28;20055;-69
2022/09/15 09:05:40;;;;;;;5.22;1.05;;;21.70;67.60;;;;;;5036993;28;20123;-67
2022/09/15 09:08:19;;;;;;;3.97;0.75;;;21.70;67.50;;;;;;5037221;28;20436;-68
2022/09/15 09:10:52;;;;;;;4.38;0.68;;;21.70;67.50;;;;;;5036670;28;20060;-68
2022/09/15 09:13:43;;;;;;;4.22;0.80;;;21.70;67.50;;;;;;5036828;28;20049;-66
2022/09/15 09:16:33;;;;;;;6.60;0.57;;;21.70;67.40;;;;;;5036623;28;20053;-69
2022/09/15 09:19:18;;;;;;;4.18;0.77;;;21.80;67.50;;;;;;5061961;28;20086;-67
2022/09/15 09:21:55;;;;;;;6.00;0.73;;;21.80;67.40;;;;;;5074608;28;20430;-69
2022/09/15 09:24:44;;;;;;;2.25;1.08;;;21.80;67.30;;;;;;5056210;28;20055;-68
2022/09/15 09:27:17;;;;;;;2.42;0.45;;;21.80;67.30;;;;;;5046249;28;20113;-69
2022/09/15 09:29:53;;;;;;;4.43;0.75;;;21.80;67.30;;;;;;5073921;28;20070;-71
2022/09/15 09:32:23;;;;;;;5.15;0.60;;;21.90;67.30;;;;;;5055477;28;20044;-67
2022/09/15 09:34:56;;;;;;;6.55;0.77;;;21.90;67.50;;;;;;5040214;28;20037;-68
2022/09/15 09:37:24;;;;;;;4.47;0.55;;;21.90;67.40;;;;;;5073972;28;20446;-67
2022/09/15 09:39:50;;;;;;;4.03;0.88;;;21.90;67.30;;;;;;5039032;28;20040;-68
2022/09/15 09:42:17;;;;;;;1.67;0.60;;;21.90;67.40;;;;;;5074108;28;20498;-67
2022/09/15 09:44:43;;;;;;;3.60;0.60;;;22.00;67.30;;;;;;5053560;28;20037;-69
2022/09/15 09:47:08;;;;;;;4.53;0.80;;;22.00;67.20;;;;;;5056245;28;20070;-70
2022/09/15 09:49:47;;;;;;;3.28;0.65;;;22.00;67.20;;;;;;5056215;28;20040;-70
2022/09/15 09:52:13;;;;;;;3.17;0.55;;;22.00;67.20;;;;;;5073080;28;20392;-70
2022/09/15 09:54:38;;;;;;;1.73;0.50;;;22.00;67.10;;;;;;5056499;28;20120;-70
2022/09/15 09:57:19;;;;;;;6.63;0.75;;;22.00;67.20;;;;;;5074047;28;20040;-68
2022/09/15 09:59:48;;;;;;;4.13;0.50;;;22.00;67.00;;;;;;5073367;28;20066;-68
2022/09/15 10:02:24;;;;;;;3.25;0.50;;;22.00;67.00;;;;;;5032028;28;20041;-68
2022/09/15 10:04:52;;;;;;;3.80;0.50;;;22.00;66.90;;;;;;5038436;28;20103;-69
2022/09/15 10:07:20;;;;;;;3.35;0.70;;;22.00;66.80;;;;;;5052941;28;20052;-72
2022/09/15 10:09:56;;;;;;;3.20;0.50;;;22.00;66.80;;;;;;5040099;28;20032;-72
2022/09/15 10:12:30;;;;;;;4.50;0.50;;;22.00;66.80;;;;;;5053789;28;20056;-70
2022/09/15 10:14:58;;;;;;;2.88;0.45;;;22.00;66.70;;;;;;5018686;28;20068;-70
2022/09/15 10:17:26;;;;;;;3.47;0.60;;;22.00;66.50;;;;;;5052228;28;20045;-70
2022/09/15 10:19:55;;;;;;;4.43;0.50;;;22.00;66.40;;;;;;5019117;28;20048;-70
2022/09/15 10:22:21;;;;;;;4.85;0.82;;;22.00;66.30;;;;;;5035267;28;20078;-70
2022/09/15 10:24:48;;;;;;;2.65;0.70;;;22.00;66.10;;;;;;5036236;28;20072;-69
2022/09/15 10:27:41;;;;;;;3.10;0.50;;;22.00;66.10;;;;;;5034612;28;20137;-70
2022/09/15 10:30:16;;;;;;;3.00;0.77;;;22.00;66.00;;;;;;5047748;28;20122;-70
2022/09/15 10:32:46;;;;;;;5.80;0.75;;;22.00;66.00;;;;;;5053727;28;20053;-72
2022/09/15 10:35:17;;;;;;;8.43;0.90;;;22.00;66.00;;;;;;5052167;28;20045;-72
2022/09/15 10:38:39;;;;;;;7.35;0.57;;;22.00;65.90;;;;;;5036129;28;20045;-71
2022/09/15 10:41:23;;;;;;;5.25;0.60;;;22.00;65.90;;;;;;4975434;28;20062;-65
2022/09/15 10:43:54;;;;;;;2.47;0.50;;;22.00;65.80;;;;;;4977112;28;20058;-74
2022/09/15 10:47:03;;;;;;;4.00;0.60;;;21.90;65.80;;;;;;5036919;28;20088;-74
2022/09/15 10:49:43;;;;;;;3.75;0.50;;;21.90;65.50;;;;;;4952174;29;20062;-72
2022/09/15 10:52:30;;;;;;;3.08;0.45;;;21.90;65.50;;;;;;4936986;29;20039;-72
2022/09/15 10:55:25;;;;;;;4.35;0.70;;;21.90;65.40;;;;;;5027146;28;20052;-72
2022/09/15 10:58:11;;;;;;;3.55;0.50;;;21.90;65.40;;;;;;5021864;28;20520;-72
2022/09/15 11:00:49;;;;;;;4.13;0.68;;;21.90;65.30;;;;;;5035399;28;20524;-72
2022/09/15 11:03:46;;;;;;;4.18;0.80;;;21.90;65.30;;;;;;5034553;28;20081;-73
2022/09/15 11:06:56;;;;;;;4.45;0.47;;;21.90;65.30;;;;;;5039058;28;20096;-74
2022/09/15 11:09:41;;;;;;;4.13;0.50;;;21.90;65.20;;;;;;5047007;28;20135;-73
2022/09/15 11:12:25;;;;;;;3.38;0.60;;;21.90;65.10;;;;;;5035555;28;20087;-73
2022/09/15 11:15:06;;;;;;;3.15;0.70;;;21.90;65.00;;;;;;5052928;28;20198;-74
2022/09/15 11:17:38;;;;;;;1.40;0.60;;;21.90;64.90;;;;;;5034510;28;20488;-74
2022/09/15 11:20:38;;;;;;;2.72;1.13;;;21.90;64.80;;;;;;5053022;28;20634;-74
2022/09/15 11:23:16;;;;;;;4.07;0.50;;;21.90;64.70;;;;;;5052391;28;20041;-73
2022/09/15 11:25:44;;;;;;;1.95;0.50;;;21.90;64.70;;;;;;5035438;28;20048;-73
2022/09/15 11:28:11;;;;;;;2.03;0.57;;;21.80;64.60;;;;;;5034824;28;20071;-73
2022/09/15 11:30:40;;;;;;;3.40;0.52;;;21.80;64.50;;;;;;5033675;28;20041;-73
2022/09/15 11:33:20;;;;;;;2.55;0.60;;;21.80;64.60;;;;;;5035221;28;20106;-73
2022/09/15 11:35:55;;;;;;;3.72;0.68;;;21.80;64.50;;;;;;5035096;28;20048;-73
2022/09/15 11:38:30;;;;;;;3.65;0.50;;;21.80;64.60;;;;;;5018825;28;20057;-73
2022/09/15 11:40:56;;;;;;;3.72;0.60;;;21.80;65.20;;;;;;5035603;28;20138;-74
2022/09/15 11:43:35;;;;;;;3.05;0.70;;;21.80;64.70;;;;;;5052396;28;20084;-74
2022/09/15 11:46:01;;;;;;;1.63;0.50;;;21.80;64.60;;;;;;5033803;28;20408;-73
2022/09/15 11:48:53;;;;;;;2.60;0.70;;;21.80;64.60;;;;;;5034358;28;20051;-73
2022/09/15 11:51:22;;;;;;;2.80;0.40;;;21.70;64.50;;;;;;5008896;28;20150;-72
2022/09/15 11:54:12;;;;;;;2.85;0.55;;;21.70;64.60;;;;;;5018393;28;20088;-72
2022/09/15 11:56:43;;;;;;;3.40;0.50;;;21.70;64.50;;;;;;5034900;28;20049;-72
2022/09/15 11:59:31;;;;;;;1.67;0.30;;;21.80;64.60;;;;;;5017768;28;20048;-72
2022/09/15 12:02:23;;;;;;;;;;;21.70;65.10;;;;;;5034909;28;20052;-73
2022/09/15 12:05:02;;;;;;;1.92;0.40;;;21.70;64.60;;;;;;5021252;28;19920;-73
2022/09/15 12:07:31;;;;;;;1.30;0.40;;;21.70;64.60;;;;;;5033753;28;20033;-73
2022/09/15 12:10:11;;;;;;;3.47;0.50;;;21.70;64.50;;;;;;5034876;28;20041;-73
2022/09/15 12:12:36;;;;;;;2.58;0.60;;;21.70;64.50;;;;;;5033322;28;20413;-73
2022/09/15 12:15:05;;;;;;;2.75;1.05;;;21.70;64.50;;;;;;5034216;28;20492;-73
2022/09/15 12:17:37;;;;;;;1.90;0.57;;;21.70;64.40;;;;;;5052431;28;20032;-73
2022/09/15 12:20:34;;;;;;;2.33;0.93;;;21.70;64.40;;;;;;5034332;28;20045;-73
2022/09/15 12:23:18;;;;;;;2.13;0.50;;;21.70;64.40;;;;;;5052150;28;20136;-73
2022/09/15 12:25:43;;;;;;;1.52;0.32;;;21.70;64.30;;;;;;5019143;28;20049;-73
2022/09/15 12:28:25;;;;;;;3.00;0.65;;;21.70;64.40;;;;;;5051124;28;20037;-73
2022/09/15 12:31:10;;;;;;;3.05;0.40;;;21.70;64.40;;;;;;5051703;28;20068;-73
2022/09/15 12:33:42;;;;;;;1.85;0.40;;;21.70;64.40;;;;;;5033630;28;20059;-73
2022/09/15 12:36:33;;;;;;;3.63;0.52;;;21.70;64.40;;;;;;5051814;28;20045;-73
2022/09/15 12:38:58;;;;;;;2.60;0.55;;;21.80;64.50;;;;;;5034532;28;20041;-73
2022/09/15 12:41:24;;;;;;;2.78;0.50;;;21.80;64.40;;;;;;5050898;28;20118;-73
2022/09/15 12:43:57;;;;;;;2.13;0.47;;;21.80;64.40;;;;;;5034040;28;20047;-73
2022/09/15 12:46:23;;;;;;;2.17;0.40;;;21.80;64.30;;;;;;5051605;28;20051;-73
2022/09/15 12:48:49;;;;;;;4.18;0.50;;;21.80;64.30;;;;;;5033701;28;20037;-73
2022/09/15 12:51:22;;;;;;;3.00;0.50;;;21.90;64.30;;;;;;5033857;28;20048;-73
2022/09/15 12:53:53;;;;;;;1.50;0.50;;;21.90;64.20;;;;;;5034348;28;20051;-73
2022/09/15 12:56:27;;;;;;;1.45;0.50;;;21.90;64.20;;;;;;5033078;28;20037;-73
2022/09/15 12:58:52;;;;;;;1.35;0.40;;;21.90;64.20;;;;;;5018078;28;20048;-73
2022/09/15 13:01:18;;;;;;;2.03;0.50;;;21.90;64.00;;;;;;5033404;28;20504;-73
2022/09/15 13:03:48;;;;;;;4.65;0.55;;;21.90;63.90;;;;;;5051106;28;20071;-73
2022/09/15 13:06:21;;;;;;;2.22;0.65;;;22.00;63.80;;;;;;5051825;28;20045;-73
2022/09/15 13:08:52;;;;;;;3.92;0.50;;;22.00;63.80;;;;;;5032334;28;20053;-73
2022/09/15 13:11:38;;;;;;;3.03;0.50;;;22.00;63.80;;;;;;5051549;28;20072;-73